CWZZ

Saglek Bay Airport

Canada
METAR CWZZ 172300Z AUTO 11004KT 060V140 ////SM //// FEW041 FEW120 SCT150 M20/M22 A2961
Observed Flight Rules
Jan-17 @ 23:00 UTC (58 minutes ago)
Wind Clouds
110° at 4 knots
  • Few at 4,100' AGL
  • Few at 12,000' AGL
  • Scattered at 15,000' AGL
Temperatures Readings
Current -20°C / -4°F
Dewpoint -22°C / -8°F
Humidity 84%
Altimeter 29.61" Hg
Pressure 1003 hPa
Elevation 483
METAR CWZZ 172300Z AUTO 11004KT 060V140 ////SM //// FEW041 FEW120 SCT150 M20/M22 A2961
Observed Flight Rules
Jan-17 @ 23:00 UTC
(58 minutes ago)
Wind
110° at 4 knots
Clouds
  • Few at 4,100' AGL
  • Few at 12,000' AGL
  • Scattered at 15,000' AGL
Temperature Dewpoint
-20°C / -4°F -22°C / -8°F
Humidity Altimeter Pressure
84% 29.61" Hg 1003 hPa